Time;durP1;ratioP1;P1;durP2;ratioP2;P2;SDS_P1;SDS_P2;PMS_P1;PMS_P2;Temp;Humidity;BMP_temperature;BMP_pressure;BME280_temperature;BME280_humidity;BME280_pressure;Samples;Min_cycle;Max_cycle;Signal;HPM_P1;HPM_P2
2020/12/26 00:02:17;;;;;;;24.30;13.07;;;-0.30;62.90;;;;;;5013697;28;20041;-71
2020/12/26 00:04:44;;;;;;;24.25;14.40;;;-0.30;63.10;;;;;;5015598;28;20042;-73
2020/12/26 00:07:12;;;;;;;24.27;13.77;;;-0.40;63.50;;;;;;5006423;28;20057;-70
2020/12/26 00:09:39;;;;;;;37.47;14.68;;;-0.40;64.10;;;;;;5018270;28;20490;-74
2020/12/26 00:12:07;;;;;;;28.15;15.07;;;-0.30;64.40;;;;;;5015270;28;20061;-70
2020/12/26 00:14:34;;;;;;;30.25;16.52;;;-0.50;64.80;;;;;;5013332;28;20042;-72
2020/12/26 00:17:02;;;;;;;28.77;18.75;;;-0.50;65.40;;;;;;5011688;28;20050;-69
2020/12/26 00:19:29;;;;;;;27.98;17.35;;;-0.60;65.40;;;;;;5013587;28;20585;-72
2020/12/26 00:21:56;;;;;;;28.35;18.15;;;-0.50;66.60;;;;;;5011665;28;20053;-72
2020/12/26 00:24:23;;;;;;;30.77;18.85;;;-0.60;66.50;;;;;;5013635;28;20522;-76
2020/12/26 00:26:50;;;;;;;30.10;18.75;;;-0.70;66.50;;;;;;5011827;28;20056;-74
2020/12/26 00:29:18;;;;;;;29.90;19.60;;;-0.70;67.30;;;;;;5009091;28;20050;-73
2020/12/26 00:31:47;;;;;;;34.65;20.92;;;-0.70;69.20;;;;;;5013062;28;20045;-73
2020/12/26 00:34:14;;;;;;;31.20;19.95;;;-0.70;69.20;;;;;;5018838;28;20133;-74
2020/12/26 00:36:42;;;;;;;32.17;20.98;;;-0.80;69.20;;;;;;5011192;28;20138;-72
2020/12/26 00:39:09;;;;;;;32.38;19.17;;;-0.70;70.00;;;;;;5011545;28;20058;-71
2020/12/26 00:41:37;;;;;;;34.35;20.65;;;-0.80;69.60;;;;;;5017750;28;20056;-73
2020/12/26 00:44:04;;;;;;;37.05;22.63;;;-0.80;70.10;;;;;;5013468;28;20056;-73
2020/12/26 00:46:32;;;;;;;36.20;22.75;;;-0.80;70.30;;;;;;5018498;28;20104;-73
2020/12/26 00:48:59;;;;;;;34.33;22.05;;;-0.70;70.80;;;;;;5021193;28;20096;-70
2020/12/26 00:51:26;;;;;;;41.08;23.38;;;-0.70;70.60;;;;;;5018460;28;20447;-72
2020/12/26 00:53:53;;;;;;;38.40;22.55;;;-0.70;70.40;;;;;;5016180;28;20080;-74
2020/12/26 00:56:20;;;;;;;34.53;21.15;;;-0.70;70.60;;;;;;5023552;28;20069;-71
2020/12/26 00:58:47;;;;;;;37.13;22.98;;;-0.70;70.70;;;;;;5022082;28;20061;-73
2020/12/26 01:01:15;;;;;;;39.25;23.00;;;-0.70;70.50;;;;;;5018929;28;20042;-70
2020/12/26 01:03:43;;;;;;;33.30;21.98;;;-0.60;70.00;;;;;;5014482;28;20050;-70
2020/12/26 01:06:14;;;;;;;32.58;21.23;;;-0.60;69.80;;;;;;5016428;28;20037;-75
2020/12/26 01:08:41;;;;;;;33.75;21.17;;;-0.70;69.50;;;;;;5007088;28;20060;-71
2020/12/26 01:11:09;;;;;;;38.45;22.13;;;-0.60;70.00;;;;;;5018036;28;20072;-72
2020/12/26 01:13:36;;;;;;;32.33;20.98;;;-0.60;70.00;;;;;;5015094;28;20056;-71
2020/12/26 01:16:04;;;;;;;34.70;21.45;;;-0.70;69.80;;;;;;5018066;28;20057;-73
2020/12/26 01:18:30;;;;;;;33.45;20.55;;;-0.80;69.30;;;;;;5014079;28;20100;-72
2020/12/26 01:21:00;;;;;;;34.65;22.10;;;-0.80;70.30;;;;;;5014340;28;20057;-71
2020/12/26 01:23:27;;;;;;;31.58;20.67;;;-0.80;70.60;;;;;;5015491;28;20133;-73
2020/12/26 01:25:54;;;;;;;37.05;21.50;;;-0.80;70.50;;;;;;5012041;28;20046;-72
2020/12/26 01:28:21;;;;;;;34.78;21.77;;;-0.90;70.30;;;;;;5006884;28;20042;-71
2020/12/26 01:30:48;;;;;;;37.70;22.08;;;-1.00;70.10;;;;;;5006833;28;20049;-72
2020/12/26 01:33:15;;;;;;;40.25;22.45;;;-1.00;70.40;;;;;;5007646;28;20506;-75
2020/12/26 01:35:42;;;;;;;37.33;21.90;;;-0.80;70.90;;;;;;5011544;28;20130;-73
2020/12/26 01:38:10;;;;;;;35.55;20.98;;;-0.70;71.40;;;;;;5000576;28;20057;-72
2020/12/26 01:40:38;;;;;;;34.90;20.77;;;-0.70;71.30;;;;;;5010981;28;20053;-73
2020/12/26 01:43:04;;;;;;;38.63;21.70;;;-0.70;71.00;;;;;;5007256;28;20048;-70
2020/12/26 01:45:31;;;;;;;36.28;21.40;;;-0.60;70.90;;;;;;5009199;28;20038;-73
2020/12/26 01:47:59;;;;;;;34.28;21.35;;;-0.70;70.30;;;;;;5004058;28;20169;-73
2020/12/26 01:50:27;;;;;;;33.45;19.45;;;-0.70;70.30;;;;;;5012246;28;20050;-74
2020/12/26 01:52:54;;;;;;;28.95;17.10;;;-0.70;71.00;;;;;;5008946;28;20519;-73
2020/12/26 01:55:22;;;;;;;35.58;19.27;;;-0.70;70.90;;;;;;5011983;28;20041;-73
2020/12/26 01:57:51;;;;;;;46.67;19.73;;;-0.70;70.70;;;;;;5007500;28;20111;-73
2020/12/26 02:00:19;;;;;;;34.53;18.33;;;-0.70;70.40;;;;;;5011961;28;20053;-70
2020/12/26 02:02:46;;;;;;;31.52;18.27;;;-0.60;70.30;;;;;;5008017;28;20061;-73
2020/12/26 02:05:15;;;;;;;31.42;18.63;;;-0.60;69.70;;;;;;5010861;28;20077;-74
2020/12/26 02:07:44;;;;;;;33.45;19.95;;;-0.50;69.50;;;;;;5005399;28;20132;-73
2020/12/26 02:10:12;;;;;;;27.85;16.77;;;-0.50;69.40;;;;;;5010905;28;20397;-71
2020/12/26 02:12:40;;;;;;;32.92;16.88;;;-0.50;68.10;;;;;;5010641;28;20499;-74
2020/12/26 02:15:07;;;;;;;29.35;16.65;;;-0.50;65.80;;;;;;5012400;28;20049;-73
2020/12/26 02:17:34;;;;;;;30.52;16.70;;;-0.50;67.60;;;;;;5004516;28;20166;-73
2020/12/26 02:20:01;;;;;;;28.52;15.20;;;-0.50;67.60;;;;;;5011947;28;20068;-74
2020/12/26 02:22:28;;;;;;;30.48;17.40;;;-0.50;67.90;;;;;;5009161;28;20065;-71
2020/12/26 02:24:56;;;;;;;32.92;17.92;;;-0.50;69.30;;;;;;5007774;28;20774;-70
2020/12/26 02:27:22;;;;;;;29.98;17.17;;;-0.60;69.30;;;;;;5006069;28;20050;-73
2020/12/26 02:29:49;;;;;;;35.85;17.17;;;-0.60;69.30;;;;;;5016500;28;20502;-70
2020/12/26 02:32:16;;;;;;;30.67;17.33;;;-0.50;70.10;;;;;;5015406;28;20594;-70
2020/12/26 02:34:43;;;;;;;35.90;17.80;;;-0.50;70.40;;;;;;5016371;28;20856;-70
2020/12/26 02:37:10;;;;;;;37.22;18.80;;;-0.50;70.20;;;;;;5009488;28;20046;-73
2020/12/26 02:39:37;;;;;;;34.40;18.42;;;-0.40;70.70;;;;;;5013573;28;20057;-69
2020/12/26 02:42:05;;;;;;;35.15;18.27;;;-0.40;70.30;;;;;;5016593;28;20046;-69
2020/12/26 02:44:32;;;;;;;34.22;17.63;;;-0.40;70.20;;;;;;5019131;28;20072;-70
2020/12/26 02:46:59;;;;;;;38.50;18.25;;;-0.30;70.60;;;;;;5016904;28;20072;-76
2020/12/26 02:49:26;;;;;;;33.78;18.02;;;-0.30;69.60;;;;;;5011528;28;20185;-70
2020/12/26 02:51:53;;;;;;;37.00;18.17;;;-0.20;69.70;;;;;;5009093;28;20518;-68
2020/12/26 02:54:19;;;;;;;40.88;17.27;;;-0.10;69.70;;;;;;5017338;28;20064;-69
2020/12/26 02:56:46;;;;;;;39.70;19.25;;;0.00;67.60;;;;;;5020851;28;20061;-72
2020/12/26 02:59:14;;;;;;;34.55;17.35;;;0.00;66.50;;;;;;5006629;28;20053;-70
2020/12/26 03:01:41;;;;;;;36.33;17.95;;;0.10;65.50;;;;;;5010154;28;20049;-70
2020/12/26 03:04:08;;;;;;;30.33;16.63;;;0.10;64.20;;;;;;5015118;28;20057;-71
2020/12/26 03:06:35;;;;;;;35.75;16.60;;;0.10;62.40;;;;;;5018214;28;20052;-71
2020/12/26 03:09:02;;;;;;;34.78;16.98;;;0.10;61.00;;;;;;5007062;28;20054;-71
2020/12/26 03:11:29;;;;;;;35.83;17.17;;;0.20;59.90;;;;;;5024235;28;20124;-69
2020/12/26 03:13:56;;;;;;;41.15;17.88;;;0.20;58.20;;;;;;5018671;28;20057;-69
2020/12/26 03:16:24;;;;;;;35.80;17.10;;;0.30;59.30;;;;;;5014872;28;20052;-73
2020/12/26 03:18:50;;;;;;;30.38;15.38;;;0.20;59.40;;;;;;5015781;28;20049;-69
2020/12/26 03:21:18;;;;;;;34.65;15.68;;;0.20;59.50;;;;;;5016659;28;20046;-69
2020/12/26 03:23:44;;;;;;;33.50;16.13;;;0.20;59.80;;;;;;5013246;28;20058;-70
2020/12/26 03:26:12;;;;;;;31.27;15.68;;;0.20;60.20;;;;;;5018661;28;20049;-73
2020/12/26 03:28:39;;;;;;;28.20;14.70;;;0.20;59.70;;;;;;5008709;28;20520;-69
2020/12/26 03:31:06;;;;;;;29.50;14.93;;;0.20;59.70;;;;;;5013276;28;20057;-70
2020/12/26 03:33:34;;;;;;;26.83;13.55;;;0.20;59.70;;;;;;5024439;28;20057;-70
2020/12/26 03:36:00;;;;;;;27.67;13.63;;;0.30;60.10;;;;;;5023477;28;20049;-71
2020/12/26 03:38:27;;;;;;;35.65;14.88;;;0.30;59.50;;;;;;5009560;28;20046;-69
2020/12/26 03:40:54;;;;;;;28.02;13.05;;;0.30;58.60;;;;;;5018328;28;20505;-69
2020/12/26 03:43:21;;;;;;;25.80;13.45;;;0.30;58.40;;;;;;5009424;28;20049;-70
2020/12/26 03:45:48;;;;;;;30.95;14.07;;;0.30;58.20;;;;;;5019873;28;20046;-69
2020/12/26 03:48:14;;;;;;;28.75;14.25;;;0.40;59.10;;;;;;5013465;28;20409;-69
2020/12/26 03:50:42;;;;;;;28.65;15.00;;;0.40;58.40;;;;;;5019841;28;20508;-70
2020/12/26 03:53:10;;;;;;;27.73;14.75;;;0.40;58.20;;;;;;5011071;28;20056;-72
2020/12/26 03:55:37;;;;;;;27.13;15.35;;;0.50;57.80;;;;;;5013691;28;20667;-76
2020/12/26 03:58:03;;;;;;;29.77;14.98;;;0.40;58.20;;;;;;5007668;28;20076;-70
2020/12/26 04:00:30;;;;;;;28.45;14.93;;;0.40;57.20;;;;;;5021040;28;20053;-71
2020/12/26 04:02:57;;;;;;;28.75;14.60;;;0.40;56.90;;;;;;5017901;28;20060;-67
2020/12/26 04:05:24;;;;;;;31.85;15.35;;;0.40;56.40;;;;;;5015624;28;20050;-71
2020/12/26 04:07:52;;;;;;;32.33;14.45;;;0.40;57.00;;;;;;5014667;28;20046;-69
2020/12/26 04:10:19;;;;;;;25.13;13.65;;;0.40;56.60;;;;;;5014792;28;20041;-69
2020/12/26 04:12:45;;;;;;;28.05;13.18;;;0.40;56.70;;;;;;5020647;28;20054;-73
2020/12/26 04:15:12;;;;;;;22.45;13.00;;;0.40;56.80;;;;;;5021968;28;20140;-76
2020/12/26 04:17:39;;;;;;;35.28;14.18;;;0.50;56.90;;;;;;5021406;28;20405;-69
2020/12/26 04:20:06;;;;;;;31.60;14.43;;;0.50;55.50;;;;;;5018227;28;20053;-70
2020/12/26 04:22:33;;;;;;;31.95;14.98;;;0.40;55.10;;;;;;5018497;28;20439;-68
2020/12/26 04:25:01;;;;;;;34.30;14.38;;;0.50;56.80;;;;;;5011612;28;20046;-74
2020/12/26 04:27:28;;;;;;;24.88;14.85;;;0.50;58.00;;;;;;5007425;28;20060;-73
2020/12/26 04:29:54;;;;;;;25.58;15.05;;;0.40;58.20;;;;;;5017533;28;20050;-69
2020/12/26 04:32:21;;;;;;;27.52;14.98;;;0.30;58.60;;;;;;5017554;28;20082;-70
2020/12/26 04:34:49;;;;;;;26.35;15.93;;;0.30;58.40;;;;;;5011302;28;20055;-71
2020/12/26 04:37:16;;;;;;;27.17;15.73;;;0.20;59.80;;;;;;5009913;28;20057;-71
2020/12/26 04:39:44;;;;;;;25.70;15.07;;;0.20;61.20;;;;;;5013329;28;20046;-70
2020/12/26 04:42:13;;;;;;;27.17;14.45;;;0.20;60.50;;;;;;5014953;28;20062;-71
2020/12/26 04:44:40;;;;;;;24.10;13.07;;;0.20;61.40;;;;;;5019227;28;20125;-70
2020/12/26 04:47:13;;;;;;;25.73;14.00;;;0.20;60.80;;;;;;5022122;28;20052;-72
2020/12/26 04:49:40;;;;;;;24.30;14.35;;;0.30;62.60;;;;;;5013998;28;20052;-69
2020/12/26 04:52:10;;;;;;;30.65;14.50;;;0.30;62.60;;;;;;5011847;28;20516;-70
2020/12/26 04:54:42;;;;;;;26.17;13.60;;;0.30;62.80;;;;;;5021403;28;20133;-70
2020/12/26 04:57:10;;;;;;;25.13;14.35;;;0.40;63.00;;;;;;5015661;28;20049;-77
2020/12/26 04:59:38;;;;;;;29.20;15.10;;;0.40;63.20;;;;;;5016590;28;20053;-69
2020/12/26 05:02:05;;;;;;;26.90;15.27;;;0.40;63.10;;;;;;5015224;28;20412;-69
2020/12/26 05:04:33;;;;;;;25.27;14.10;;;0.40;63.00;;;;;;5019777;28;21338;-70
2020/12/26 05:07:00;;;;;;;25.55;13.88;;;0.40;62.10;;;;;;5011209;28;20546;-75
2020/12/26 05:09:27;;;;;;;27.95;13.48;;;0.40;61.50;;;;;;5012797;28;20052;-71
2020/12/26 05:11:55;;;;;;;30.58;13.98;;;0.50;61.80;;;;;;5016497;28;20054;-73
2020/12/26 05:14:23;;;;;;;32.03;14.85;;;0.50;61.70;;;;;;5014000;28;20083;-70
2020/12/26 05:16:51;;;;;;;30.85;13.98;;;0.40;60.70;;;;;;5016143;28;20042;-71
2020/12/26 05:19:18;;;;;;;27.05;14.05;;;0.50;60.70;;;;;;5006200;28;20056;-71
2020/12/26 05:21:47;;;;;;;21.58;13.10;;;0.50;61.60;;;;;;5014986;28;20077;-70
2020/12/26 05:24:17;;;;;;;32.50;15.13;;;0.60;61.30;;;;;;5012702;28;20062;-70
2020/12/26 05:26:46;;;;;;;30.60;15.13;;;0.70;61.10;;;;;;5015906;28;20045;-72
2020/12/26 05:29:14;;;;;;;37.47;15.02;;;0.70;60.70;;;;;;5007021;28;20087;-70
2020/12/26 05:31:49;;;;;;;28.38;13.32;;;0.70;59.90;;;;;;5017949;28;20060;-70
2020/12/26 05:34:17;;;;;;;32.38;14.35;;;0.60;58.40;;;;;;5015950;28;20397;-73
2020/12/26 05:36:44;;;;;;;28.58;13.07;;;0.50;58.30;;;;;;5019475;28;20042;-70
2020/12/26 05:39:12;;;;;;;29.05;13.05;;;0.40;58.30;;;;;;5006608;28;20060;-70
2020/12/26 05:41:40;;;;;;;26.75;13.38;;;0.40;59.70;;;;;;5015670;28;20415;-77
2020/12/26 05:44:07;;;;;;;26.55;13.55;;;0.30;61.00;;;;;;5022502;28;20069;-70
2020/12/26 05:46:34;;;;;;;33.08;14.82;;;0.30;61.20;;;;;;5013718;28;20042;-70
2020/12/26 05:49:22;;;;;;;31.20;15.30;;;0.30;62.20;;;;;;5005713;28;20054;-71
2020/12/26 05:51:53;;;;;;;32.58;14.48;;;0.30;62.80;;;;;;5007619;28;20058;-71
2020/12/26 05:54:20;;;;;;;29.73;15.38;;;0.30;63.10;;;;;;5019686;28;20046;-70
2020/12/26 05:57:04;;;;;;;39.47;15.32;;;0.20;63.20;;;;;;5009066;28;20050;-77
2020/12/26 05:59:31;;;;;;;37.50;15.40;;;0.10;62.80;;;;;;5012806;28;20139;-74
2020/12/26 06:02:00;;;;;;;36.03;15.40;;;0.00;64.80;;;;;;5023610;28;20488;-70
2020/12/26 06:04:30;;;;;;;37.97;17.60;;;0.00;65.80;;;;;;5015587;28;20064;-70
2020/12/26 06:06:58;;;;;;;39.50;16.75;;;0.00;66.50;;;;;;5010890;28;20424;-77
2020/12/26 06:09:26;;;;;;;41.88;18.92;;;-0.10;68.10;;;;;;5020240;28;20056;-73
2020/12/26 06:11:53;;;;;;;43.67;19.77;;;-0.10;68.60;;;;;;5014184;28;20060;-70
2020/12/26 06:14:20;;;;;;;44.78;19.90;;;0.00;69.70;;;;;;5011147;28;20081;-71
2020/12/26 06:16:50;;;;;;;47.85;19.40;;;-0.10;69.80;;;;;;5017402;28;20427;-70
2020/12/26 06:19:22;;;;;;;44.80;20.92;;;-0.10;69.80;;;;;;5009861;28;20404;-70
2020/12/26 06:21:51;;;;;;;51.75;20.25;;;-0.20;69.70;;;;;;5013319;28;20054;-73
2020/12/26 06:24:19;;;;;;;52.97;21.92;;;-0.20;70.00;;;;;;5015631;28;20069;-74
2020/12/26 06:26:53;;;;;;;47.03;19.83;;;-0.20;70.70;;;;;;5013434;28;20045;-73
2020/12/26 06:29:23;;;;;;;46.13;20.35;;;-0.30;71.00;;;;;;5012926;28;20049;-69
2020/12/26 06:31:51;;;;;;;42.45;18.67;;;-0.30;71.00;;;;;;5016540;28;20057;-76
2020/12/26 06:34:19;;;;;;;44.95;18.90;;;-0.40;70.70;;;;;;5008321;28;20045;-69
2020/12/26 06:36:46;;;;;;;43.83;19.52;;;-0.40;71.30;;;;;;5014652;28;20049;-68
2020/12/26 06:39:30;;;;;;;48.92;19.83;;;-0.30;71.80;;;;;;5007127;28;20050;-68
2020/12/26 06:42:10;;;;;;;;;;;-0.20;71.90;;;;;;5018661;28;20068;-69
2020/12/26 06:44:37;;;;;;;49.08;22.05;;;-0.20;71.60;;;;;;5010858;28;19948;-73
2020/12/26 06:47:04;;;;;;;54.63;21.35;;;-0.30;71.20;;;;;;5009789;28;20128;-69
2020/12/26 06:49:31;;;;;;;47.42;21.08;;;-0.30;71.10;;;;;;5012801;28;20401;-70
2020/12/26 06:51:58;;;;;;;49.72;21.02;;;-0.30;71.00;;;;;;5011952;28;20052;-76
2020/12/26 06:54:49;;;;;;;52.55;21.48;;;-0.30;71.00;;;;;;5017111;28;20052;-72
2020/12/26 06:57:37;;;;;;;50.20;21.52;;;-0.30;71.10;;;;;;4985043;28;20050;-69
2020/12/26 07:00:28;;;;;;;51.63;20.63;;;-0.30;71.10;;;;;;5011887;28;20050;-70
2020/12/26 07:03:14;;;;;;;46.33;19.92;;;-0.40;70.80;;;;;;5017398;28;20052;-71
2020/12/26 07:05:41;;;;;;;52.65;21.17;;;-0.40;71.10;;;;;;5016593;28;20057;-70
2020/12/26 07:08:19;;;;;;;46.95;19.05;;;-0.30;71.20;;;;;;5002070;28;20053;-70
2020/12/26 07:10:47;;;;;;;50.28;21.30;;;-0.30;71.40;;;;;;5006752;28;20057;-71
2020/12/26 07:13:41;;;;;;;47.22;19.83;;;-0.10;71.40;;;;;;5012678;28;20049;-70
2020/12/26 07:23:37;;;;;;;43.10;19.88;;;0.10;70.00;;;;;;5012115;28;20072;-76
2020/12/26 07:26:11;;;;;;;44.35;19.73;;;0.20;68.70;;;;;;5012355;28;20411;-71
2020/12/26 07:28:40;;;;;;;41.92;18.95;;;0.20;67.30;;;;;;5015365;28;20416;-70
2020/12/26 07:31:17;;;;;;;42.47;17.92;;;0.20;66.00;;;;;;5016305;28;20060;-72
2020/12/26 07:33:44;;;;;;;37.58;17.88;;;0.40;64.90;;;;;;5013709;28;20045;-70
2020/12/26 07:36:19;;;;;;;38.10;17.38;;;0.40;64.40;;;;;;5017039;28;20068;-70
2020/12/26 07:39:01;;;;;;;34.03;17.58;;;0.50;64.10;;;;;;5022297;28;20049;-72
2020/12/26 07:45:21;;;;;;;33.42;16.92;;;0.60;62.70;;;;;;5014383;28;20044;-70
2020/12/26 07:47:50;;;;;;;34.28;16.33;;;0.60;62.40;;;;;;5008570;28;20065;-75
2020/12/26 07:50:18;;;;;;;33.55;15.70;;;0.70;61.50;;;;;;5018081;28;20163;-70
2020/12/26 07:52:46;;;;;;;27.67;14.68;;;0.70;61.40;;;;;;5011756;28;20052;-70
2020/12/26 07:55:13;;;;;;;26.80;14.75;;;0.80;61.00;;;;;;5017666;28;20050;-71
2020/12/26 07:57:40;;;;;;;28.50;14.90;;;0.80;60.30;;;;;;5017082;28;20071;-69
2020/12/26 08:00:08;;;;;;;27.40;14.60;;;0.80;59.90;;;;;;5018344;28;20423;-69
2020/12/26 08:02:36;;;;;;;28.45;15.32;;;0.80;58.50;;;;;;5018078;28;20389;-69
2020/12/26 08:05:03;;;;;;;27.23;14.48;;;0.90;58.70;;;;;;5021734;28;20046;-71
2020/12/26 08:07:33;;;;;;;28.45;13.77;;;0.90;58.10;;;;;;5014077;28;20825;-70
2020/12/26 08:10:00;;;;;;;24.45;13.52;;;0.90;57.80;;;;;;5017996;28;20054;-70
2020/12/26 08:12:27;;;;;;;31.05;14.65;;;1.00;57.30;;;;;;5020885;28;20054;-72
2020/12/26 08:14:58;;;;;;;27.67;14.93;;;0.90;56.50;;;;;;5017780;28;20408;-70
2020/12/26 08:17:26;;;;;;;24.02;14.27;;;1.00;57.10;;;;;;5011590;28;20045;-73
2020/12/26 08:19:59;;;;;;;25.63;13.68;;;0.90;57.00;;;;;;5019596;28;20492;-70
2020/12/26 08:22:27;;;;;;;25.02;13.82;;;0.90;55.40;;;;;;5012310;28;20771;-77
2020/12/26 08:25:05;;;;;;;25.13;13.35;;;0.90;55.10;;;;;;5018073;28;20083;-70
2020/12/26 08:27:37;;;;;;;26.10;14.07;;;0.90;56.90;;;;;;5017083;28;20068;-74
2020/12/26 08:30:07;;;;;;;23.70;13.13;;;0.90;56.00;;;;;;5019256;28;20054;-71
2020/12/26 08:32:42;;;;;;;26.90;14.27;;;0.90;56.20;;;;;;5030477;28;20056;-70
2020/12/26 08:35:13;;;;;;;31.60;14.48;;;0.90;56.90;;;;;;5022003;28;20416;-71
2020/12/26 08:37:45;;;;;;;28.15;14.35;;;1.00;56.20;;;;;;5006086;28;20128;-70
2020/12/26 08:40:16;;;;;;;23.08;12.77;;;1.00;57.20;;;;;;5014917;28;20049;-71
2020/12/26 08:42:43;;;;;;;32.42;14.65;;;1.20;55.00;;;;;;5025194;28;20053;-71
2020/12/26 08:45:31;;;;;;;26.92;12.88;;;1.30;53.70;;;;;;5019610;28;20045;-72
2020/12/26 08:47:59;;;;;;;29.30;13.15;;;1.30;51.20;;;;;;5018121;28;20057;-69
2020/12/26 08:50:29;;;;;;;22.45;11.90;;;1.40;49.80;;;;;;5019092;28;20128;-72
2020/12/26 08:53:05;;;;;;;28.40;12.80;;;1.40;48.10;;;;;;5017302;28;20419;-72
2020/12/26 08:55:45;;;;;;;20.58;10.75;;;1.60;46.90;;;;;;5015788;28;20050;-71
2020/12/26 08:58:25;;;;;;;20.60;11.07;;;1.80;44.80;;;;;;5017027;28;20065;-76
2020/12/26 09:00:55;;;;;;;22.55;11.70;;;1.90;41.80;;;;;;5016813;28;20148;-70
2020/12/26 09:03:23;;;;;;;19.30;10.50;;;1.90;39.60;;;;;;5022209;28;20841;-69
2020/12/26 09:05:53;;;;;;;18.95;10.43;;;1.80;39.00;;;;;;5021283;28;20045;-70
2020/12/26 09:08:27;;;;;;;14.98;9.10;;;1.80;39.00;;;;;;5011023;28;20424;-70
2020/12/26 09:10:59;;;;;;;18.13;9.70;;;1.80;37.60;;;;;;5021739;28;20049;-79
2020/12/26 09:13:32;;;;;;;18.67;10.13;;;1.80;35.40;;;;;;5014039;28;20409;-70
2020/12/26 09:16:03;;;;;;;22.08;11.45;;;1.60;35.20;;;;;;5017858;28;20045;-72
2020/12/26 09:18:41;;;;;;;21.73;10.52;;;1.50;35.20;;;;;;5009398;28;20054;-69
2020/12/26 09:21:21;;;;;;;20.10;10.25;;;1.60;39.30;;;;;;5018962;28;20057;-68
2020/12/26 09:23:48;;;;;;;21.17;10.40;;;1.70;38.30;;;;;;5020751;28;20061;-70
2020/12/26 09:26:17;;;;;;;20.55;10.98;;;1.70;37.60;;;;;;5023031;28;20055;-73
2020/12/26 09:28:52;;;;;;;20.80;11.38;;;1.80;37.90;;;;;;5010202;28;20050;-71
2020/12/26 09:31:22;;;;;;;17.58;10.07;;;1.70;37.30;;;;;;5009813;28;20499;-73
2020/12/26 09:33:50;;;;;;;17.63;9.43;;;1.90;38.10;;;;;;5018086;28;20060;-72
2020/12/26 09:36:20;;;;;;;16.10;9.38;;;2.00;35.60;;;;;;5013497;28;20530;-75
2020/12/26 09:38:47;;;;;;;17.50;8.85;;;1.90;32.20;;;;;;5009663;28;20053;-78
2020/12/26 09:41:19;;;;;;;13.50;7.40;;;2.10;34.00;;;;;;5011079;28;20052;-71
2020/12/26 09:43:48;;;;;;;13.50;8.35;;;2.20;30.90;;;;;;5016907;28;20487;-73
2020/12/26 09:46:15;;;;;;;19.25;8.80;;;2.30;31.70;;;;;;5012909;28;20049;-75
2020/12/26 09:48:44;;;;;;;18.25;9.23;;;2.40;31.10;;;;;;5006319;28;20050;-71
2020/12/26 09:51:13;;;;;;;17.13;8.13;;;2.40;28.90;;;;;;5015771;28;20049;-72
2020/12/26 09:53:41;;;;;;;14.05;7.70;;;2.30;27.20;;;;;;5015981;28;20061;-70
2020/12/26 09:56:09;;;;;;;11.65;7.57;;;2.40;28.80;;;;;;5014983;28;20057;-72
2020/12/26 09:58:38;;;;;;;15.25;8.02;;;2.50;28.90;;;;;;5009791;28;20050;-71
2020/12/26 10:01:05;;;;;;;13.80;7.32;;;2.60;28.20;;;;;;5015433;28;20092;-74
2020/12/26 10:03:32;;;;;;;12.93;7.30;;;2.50;26.60;;;;;;5014850;28;20068;-71
2020/12/26 10:05:59;;;;;;;12.10;7.32;;;2.60;27.30;;;;;;5011811;28;20057;-70
2020/12/26 10:08:28;;;;;;;14.05;7.88;;;2.50;26.60;;;;;;5007419;28;20419;-70
2020/12/26 10:10:56;;;;;;;11.98;7.35;;;2.60;27.60;;;;;;5018577;28;20081;-70
2020/12/26 10:13:23;;;;;;;14.95;8.30;;;2.60;26.50;;;;;;5014581;28;20522;-70
2020/12/26 10:15:50;;;;;;;13.38;8.25;;;2.60;26.50;;;;;;5014780;28;20164;-69
2020/12/26 10:18:17;;;;;;;19.60;7.95;;;2.70;26.90;;;;;;5011565;28;20420;-74
2020/12/26 10:20:44;;;;;;;11.80;7.10;;;2.70;25.90;;;;;;5016449;28;20452;-74
2020/12/26 10:23:10;;;;;;;13.05;6.90;;;2.80;26.10;;;;;;5010553;28;20091;-73
2020/12/26 10:25:48;;;;;;;13.38;7.22;;;2.90;24.80;;;;;;5013003;28;20067;-73
2020/12/26 10:28:16;;;;;;;12.07;7.22;;;2.70;24.90;;;;;;5007940;28;20053;-74
2020/12/26 10:30:43;;;;;;;13.68;7.15;;;2.80;25.50;;;;;;5015199;28;20073;-74
2020/12/26 10:33:10;;;;;;;13.20;6.75;;;3.00;26.40;;;;;;5019064;28;20103;-70
2020/12/26 10:35:37;;;;;;;18.83;8.43;;;2.90;26.50;;;;;;5016031;28;20076;-74
2020/12/26 10:38:04;;;;;;;12.15;7.20;;;3.00;26.00;;;;;;5010738;28;20072;-76
2020/12/26 10:40:32;;;;;;;14.27;7.93;;;3.10;25.40;;;;;;5017189;28;20171;-72
2020/12/26 10:42:59;;;;;;;12.52;7.32;;;3.20;25.00;;;;;;5024104;28;20049;-69
2020/12/26 10:45:26;;;;;;;10.68;6.97;;;3.20;25.60;;;;;;5012979;28;20068;-73
2020/12/26 10:47:53;;;;;;;14.82;7.43;;;3.20;25.40;;;;;;5010283;28;20046;-69
2020/12/26 10:50:20;;;;;;;12.25;6.75;;;3.20;25.00;;;;;;5011526;28;20053;-70
2020/12/26 10:52:47;;;;;;;12.02;7.47;;;3.20;26.60;;;;;;5014232;28;20460;-74
2020/12/26 10:55:14;;;;;;;11.02;7.30;;;3.50;24.80;;;;;;5008183;28;20054;-76
2020/12/26 10:57:42;;;;;;;12.82;7.57;;;3.40;25.10;;;;;;5011032;28;20041;-77
2020/12/26 11:00:09;;;;;;;11.95;7.75;;;3.30;23.30;;;;;;5011065;28;20057;-71
2020/12/26 11:02:37;;;;;;;10.30;6.50;;;3.40;23.90;;;;;;5018425;28;20099;-71
2020/12/26 11:05:05;;;;;;;12.40;7.45;;;3.50;23.70;;;;;;5010154;28;20053;-73
2020/12/26 11:07:32;;;;;;;13.70;7.70;;;3.60;24.20;;;;;;5011175;28;20072;-74
2020/12/26 11:09:59;;;;;;;11.80;7.38;;;3.50;22.10;;;;;;5009221;28;20068;-70
2020/12/26 11:12:26;;;;;;;11.30;6.93;;;3.50;22.40;;;;;;5015521;28;20069;-79
2020/12/26 11:14:53;;;;;;;10.93;6.05;;;3.60;22.50;;;;;;5012960;28;20057;-69
2020/12/26 11:17:20;;;;;;;11.88;6.60;;;3.60;21.80;;;;;;5004980;28;21760;-69
2020/12/26 11:19:48;;;;;;;9.98;6.20;;;3.50;20.60;;;;;;5013277;28;20063;-75
2020/12/26 11:22:15;;;;;;;12.98;6.22;;;3.60;19.60;;;;;;5015219;28;20053;-75
2020/12/26 11:24:41;;;;;;;11.57;6.93;;;3.60;19.90;;;;;;5011951;28;20061;-69
2020/12/26 11:27:10;;;;;;;11.52;7.00;;;3.70;20.00;;;;;;5004383;28;20056;-78
2020/12/26 11:29:37;;;;;;;9.40;6.75;;;3.70;20.80;;;;;;5013092;28;20050;-70
2020/12/26 11:32:04;;;;;;;12.05;6.68;;;3.70;21.00;;;;;;5012085;28;20061;-72
2020/12/26 11:34:31;;;;;;;11.30;6.20;;;3.70;20.40;;;;;;5016832;28;20522;-72
2020/12/26 11:36:58;;;;;;;10.23;6.50;;;3.80;19.40;;;;;;5015596;28;20050;-72
2020/12/26 11:39:25;;;;;;;11.48;7.32;;;3.70;19.10;;;;;;5009670;28;20061;-73
2020/12/26 11:41:52;;;;;;;14.93;6.65;;;3.60;18.80;;;;;;5013318;28;20050;-75
2020/12/26 11:44:19;;;;;;;14.25;6.95;;;3.70;18.70;;;;;;5009001;28;20065;-75
2020/12/26 11:46:46;;;;;;;9.95;6.45;;;3.70;18.60;;;;;;5008343;28;20045;-70
2020/12/26 11:49:13;;;;;;;10.55;5.70;;;3.70;19.00;;;;;;5012930;28;20045;-70
2020/12/26 11:51:39;;;;;;;11.65;6.18;;;3.60;18.20;;;;;;5015403;28;20105;-73
2020/12/26 11:54:07;;;;;;;9.68;6.43;;;3.60;18.20;;;;;;5014246;28;20058;-71
2020/12/26 11:56:48;;;;;;;11.70;6.32;;;3.70;18.10;;;;;;5012389;28;20046;-75
2020/12/26 11:59:15;;;;;;;11.82;6.60;;;3.80;16.70;;;;;;5011165;28;20510;-70
2020/12/26 12:01:42;;;;;;;10.85;5.85;;;3.70;17.00;;;;;;5015778;28;20049;-71
2020/12/26 12:04:09;;;;;;;11.38;6.05;;;3.80;16.00;;;;;;5013335;28;20045;-70
2020/12/26 12:06:36;;;;;;;10.30;6.30;;;3.80;15.30;;;;;;5014145;28;20067;-70
2020/12/26 12:09:04;;;;;;;14.27;6.68;;;3.90;16.90;;;;;;5013457;28;20049;-69
2020/12/26 12:11:32;;;;;;;11.10;6.25;;;4.00;16.60;;;;;;5010551;28;20137;-70
2020/12/26 12:13:59;;;;;;;12.00;6.55;;;3.90;16.40;;;;;;5020389;28;20057;-70
2020/12/26 12:16:27;;;;;;;11.88;5.75;;;3.80;16.50;;;;;;5017922;28;20049;-72
2020/12/26 12:18:54;;;;;;;10.65;6.03;;;3.80;16.10;;;;;;4999481;28;20120;-72
2020/12/26 12:21:21;;;;;;;11.70;5.80;;;3.60;15.80;;;;;;5006338;28;20061;-71
2020/12/26 12:23:48;;;;;;;10.65;6.28;;;3.50;15.80;;;;;;5011208;28;20053;-72
2020/12/26 12:26:21;;;;;;;7.90;5.63;;;3.50;16.60;;;;;;5011027;28;20053;-72
2020/12/26 12:28:48;;;;;;;9.25;5.55;;;3.40;17.60;;;;;;5008505;28;20136;-72
2020/12/26 12:31:15;;;;;;;10.02;5.75;;;3.40;17.40;;;;;;5010263;28;20416;-71
2020/12/26 12:33:42;;;;;;;14.15;6.38;;;3.30;18.00;;;;;;5012596;28;20081;-72
2020/12/26 12:36:09;;;;;;;13.90;6.88;;;3.40;19.40;;;;;;5013148;28;20080;-72
2020/12/26 12:38:35;;;;;;;11.95;6.60;;;3.40;20.00;;;;;;5009684;28;20059;-72
2020/12/26 12:41:02;;;;;;;12.75;7.43;;;3.40;18.60;;;;;;5012012;28;20061;-72
2020/12/26 12:43:29;;;;;;;10.57;6.78;;;3.40;19.50;;;;;;5010680;28;20061;-72
2020/12/26 12:45:57;;;;;;;14.50;6.70;;;3.40;20.20;;;;;;5012838;28;20054;-72
2020/12/26 12:48:23;;;;;;;11.43;6.93;;;3.40;19.90;;;;;;5008399;28;20041;-72
2020/12/26 12:50:50;;;;;;;14.25;7.18;;;3.40;18.90;;;;;;5011382;28;20057;-72
2020/12/26 12:53:17;;;;;;;13.68;7.70;;;3.50;19.00;;;;;;5009930;28;20081;-73
2020/12/26 12:55:44;;;;;;;13.80;7.80;;;3.40;19.60;;;;;;5012060;28;20734;-72
2020/12/26 12:58:11;;;;;;;12.55;7.57;;;3.40;20.40;;;;;;5006210;28;20511;-72